Time;durP1;ratioP1;P1;durP2;ratioP2;P2;SDS_P1;SDS_P2;PMS_P1;PMS_P2;Temp;Humidity;BMP_temperature;BMP_pressure;BME280_temperature;BME280_humidity;BME280_pressure;Samples;Min_cycle;Max_cycle;Signal;HPM_P1;HPM_P2
2023/10/11 00:00:35;;;;;;;;;;;;;;;16.03;48.58;100481.13;3158388;28;19971;-69
2023/10/11 00:02:07;;;;;;;;;;;;;;;15.98;48.52;100484.03;3155678;28;20312;-70
2023/10/11 00:03:52;;;;;;;;;;;;;;;15.99;48.80;100484.88;3145841;28;19929;-68
2023/10/11 00:05:22;;;;;;;;;;;;;;;15.98;48.59;100478.78;3148666;28;19932;-68
2023/10/11 00:06:54;;;;;;;;;;;;;;;15.94;48.72;100482.50;3157711;28;19928;-68
2023/10/11 00:08:26;;;;;;;;;;;;;;;15.92;48.70;100479.13;3158270;28;19950;-68
2023/10/11 00:09:58;;;;;;;;;;;;;;;15.87;48.62;100478.53;3153651;28;20028;-68
2023/10/11 00:11:30;;;;;;;;;;;;;;;15.85;48.71;100481.28;3152032;28;19974;-66
2023/10/11 00:13:03;;;;;;;;;;;;;;;15.84;48.65;100476.94;3152996;28;19966;-67
2023/10/11 00:14:39;;;;;;;;;;;;;;;15.83;48.59;100484.91;3157217;28;20010;-66
2023/10/11 00:16:13;;;;;;;;;;;;;;;15.82;48.54;100484.03;3157905;28;19924;-66
2023/10/11 00:17:46;;;;;;;;;;;;;;;15.82;48.41;100484.03;3157911;28;19931;-66
2023/10/11 00:19:17;;;;;;;;;;;;;;;15.79;48.42;100489.47;3157711;28;20044;-67
2023/10/11 00:20:51;;;;;;;;;;;;;;;15.78;48.22;100484.31;3156306;28;19936;-67
2023/10/11 00:22:24;;;;;;;;;;;;;;;15.77;48.51;100488.72;3154297;28;20023;-67
2023/10/11 00:23:56;;;;;;;;;;;;;;;15.75;48.51;100487.09;3158120;28;20476;-66
2023/10/11 00:25:31;;;;;;;;;;;;;;;15.75;48.53;100480.06;3153166;28;19963;-66
2023/10/11 00:27:03;;;;;;;;;;;;;;;15.75;48.41;100481.84;3152602;28;19994;-66
2023/10/11 00:28:33;;;;;;;;;;;;;;;15.74;48.63;100490.69;3158031;28;20400;-67
2023/10/11 00:30:06;;;;;;;;;;;;;;;15.74;48.63;100475.75;3158219;28;20006;-67
2023/10/11 00:31:38;;;;;;;;;;;;;;;15.74;48.24;100478.38;3157788;28;20379;-67
2023/10/11 00:33:08;;;;;;;;;;;;;;;15.73;48.42;100471.44;3157661;28;19924;-67
2023/10/11 00:34:40;;;;;;;;;;;;;;;15.74;48.42;100477.53;3158352;28;20421;-67
2023/10/11 00:36:10;;;;;;;;;;;;;;;15.72;48.23;100479.41;3155712;28;19924;-67
2023/10/11 00:37:44;;;;;;;;;;;;;;;15.71;48.21;100488.22;3146815;28;20434;-67
2023/10/11 00:39:17;;;;;;;;;;;;;;;15.69;48.37;100483.88;3153117;28;20431;-67
2023/10/11 00:41:00;;;;;;;;;;;;;;;15.67;48.29;100485.72;3147956;28;20419;-67
2023/10/11 00:42:32;;;;;;;;;;;;;;;15.64;48.46;100480.63;3146363;28;19947;-67
2023/10/11 00:44:04;;;;;;;;;;;;;;;15.62;48.47;100482.50;3157646;28;19931;-67
2023/10/11 00:45:36;;;;;;;;;;;;;;;15.62;48.56;100481.66;3156955;28;19928;-67
2023/10/11 00:47:08;;;;;;;;;;;;;;;15.62;48.47;100490.38;3157377;28;20293;-67
2023/10/11 00:48:51;;;;;;;;;;;;;;;15.62;48.41;100489.53;3157671;28;19999;-67
2023/10/11 00:50:23;;;;;;;;;;;;;;;15.63;48.24;100492.06;3157840;28;19979;-66
2023/10/11 00:51:54;;;;;;;;;;;;;;;15.63;48.43;100489.44;3157903;28;19931;-65
2023/10/11 00:53:26;;;;;;;;;;;;;;;15.62;48.23;100492.16;3156535;28;19943;-68
2023/10/11 00:54:59;;;;;;;;;;;;;;;15.62;48.31;100497.41;3147395;28;19925;-64
2023/10/11 00:56:32;;;;;;;;;;;;;;;15.60;48.40;100500.13;3154632;28;19931;-64
2023/10/11 00:58:03;;;;;;;;;;;;;;;15.59;48.39;100502.84;3157832;28;20416;-64
2023/10/11 00:59:36;;;;;;;;;;;;;;;15.58;48.18;100506.38;3149841;28;19931;-66
2023/10/11 01:01:08;;;;;;;;;;;;;;;15.55;48.22;100504.75;3154492;28;20298;-66
2023/10/11 01:02:40;;;;;;;;;;;;;;;15.53;48.04;100506.66;3157459;28;19947;-66
2023/10/11 01:04:12;;;;;;;;;;;;;;;15.54;48.11;100510.09;3157422;28;20397;-67
2023/10/11 01:05:43;;;;;;;;;;;;;;;15.55;48.25;100514.41;3157375;28;19932;-67
2023/10/11 01:07:15;;;;;;;;;;;;;;;15.55;48.05;100512.63;3157006;28;19924;-68
2023/10/11 01:08:48;;;;;;;;;;;;;;;15.54;48.11;100513.56;3152989;28;19953;-67
2023/10/11 01:10:23;;;;;;;;;;;;;;;15.54;48.24;100518.00;3156746;28;20386;-66
2023/10/11 01:11:55;;;;;;;;;;;;;;;15.53;48.17;100518.91;3152128;28;19934;-68
2023/10/11 01:13:26;;;;;;;;;;;;;;;15.51;48.10;100518.16;3150974;28;19928;-68
2023/10/11 01:15:01;;;;;;;;;;;;;;;15.50;48.11;100517.31;3157263;28;19924;-68
2023/10/11 01:16:31;;;;;;;;;;;;;;;15.51;47.95;100520.78;3157011;28;20001;-68
2023/10/11 01:18:03;;;;;;;;;;;;;;;15.49;47.99;100518.22;3152860;28;19928;-68
2023/10/11 01:19:34;;;;;;;;;;;;;;;15.52;48.13;100520.69;3157420;28;19931;-66
2023/10/11 01:21:09;;;;;;;;;;;;;;;15.52;47.85;100523.31;3157756;28;19924;-64
2023/10/11 01:22:40;;;;;;;;;;;;;;;15.54;47.84;100531.94;3145907;28;19924;-64
2023/10/11 01:24:14;;;;;;;;;;;;;;;15.54;47.80;100534.59;3155665;28;20064;-64
2023/10/11 01:25:45;;;;;;;;;;;;;;;15.57;47.88;100539.66;3155542;28;20725;-64
2023/10/11 01:27:17;;;;;;;;;;;;;;;15.59;47.87;100542.22;3154416;28;19924;-63
2023/10/11 01:28:49;;;;;;;;;;;;;;;15.62;47.85;100539.44;3157688;28;19928;-65
2023/10/11 01:30:19;;;;;;;;;;;;;;;15.63;47.57;100541.13;3157352;28;19955;-65
2023/10/11 01:31:51;;;;;;;;;;;;;;;15.63;47.62;100546.38;3157481;28;19924;-66
2023/10/11 01:33:21;;;;;;;;;;;;;;;15.62;47.66;100550.78;3156363;28;19924;-66
2023/10/11 01:34:53;;;;;;;;;;;;;;;15.62;47.61;100548.16;3157419;28;19924;-67
2023/10/11 01:36:26;;;;;;;;;;;;;;;15.65;47.70;100553.22;3157407;28;19928;-67
2023/10/11 01:37:57;;;;;;;;;;;;;;;15.66;47.61;100551.44;3152110;28;19971;-67
2023/10/11 01:39:32;;;;;;;;;;;;;;;15.66;47.31;100554.06;3155728;28;20543;-68
2023/10/11 01:41:06;;;;;;;;;;;;;;;15.64;47.40;100551.50;3147402;28;19928;-68
2023/10/11 01:42:36;;;;;;;;;;;;;;;15.62;47.39;100555.19;3146089;28;19924;-67
2023/10/11 01:44:08;;;;;;;;;;;;;;;15.61;47.33;100556.09;3157371;28;20341;-68
2023/10/11 01:45:39;;;;;;;;;;;;;;;15.61;47.57;100550.84;3155994;28;19950;-69
2023/10/11 01:47:11;;;;;;;;;;;;;;;15.59;47.42;100552.72;3157249;28;19924;-69
2023/10/11 01:48:41;;;;;;;;;;;;;;;15.57;47.55;100552.78;3157441;28;19924;-69
2023/10/11 01:50:14;;;;;;;;;;;;;;;15.57;47.49;100551.94;3157691;28;19928;-67
2023/10/11 01:51:47;;;;;;;;;;;;;;;15.56;47.30;100548.47;3149524;28;19987;-68
2023/10/11 01:53:18;;;;;;;;;;;;;;;15.55;47.26;100556.44;3156773;28;19959;-72
2023/10/11 01:54:50;;;;;;;;;;;;;;;15.53;47.63;100559.16;3151042;28;19925;-71
2023/10/11 01:56:23;;;;;;;;;;;;;;;15.54;47.59;100560.84;3154565;28;19928;-71
2023/10/11 01:57:55;;;;;;;;;;;;;;;15.53;47.34;100563.53;3159868;28;20381;-72
2023/10/11 01:59:26;;;;;;;;;;;;;;;15.52;47.52;100564.47;3159939;28;20021;-72
2023/10/11 02:00:57;;;;;;;;;;;;;;;15.50;47.41;100561.94;3159498;28;20025;-71
2023/10/11 02:02:28;;;;;;;;;;;;;;;15.49;47.18;100565.47;3159526;28;19928;-71
2023/10/11 02:04:03;;;;;;;;;;;;;;;15.48;47.08;100567.25;3159958;28;20456;-72
2023/10/11 02:05:33;;;;;;;;;;;;;;;15.42;47.15;100574.63;3159264;28;20006;-67
2023/10/11 02:07:07;;;;;;;;;;;;;;;15.40;47.32;100579.94;3155116;28;20022;-67
2023/10/11 02:08:37;;;;;;;;;;;;;;;15.41;47.39;100575.53;3159498;28;20397;-67
2023/10/11 02:10:12;;;;;;;;;;;;;;;15.41;47.36;100578.16;3159328;28;19924;-67
2023/10/11 02:11:42;;;;;;;;;;;;;;;15.40;46.99;100584.34;3151907;28;20294;-65
2023/10/11 02:13:15;;;;;;;;;;;;;;;15.38;46.95;100588.81;3164408;28;19938;-66
2023/10/11 02:14:45;;;;;;;;;;;;;;;15.39;47.12;100593.16;3147119;28;19931;-66
2023/10/11 02:16:17;;;;;;;;;;;;;;;15.38;47.14;100600.19;3147265;28;19948;-66
2023/10/11 02:17:48;;;;;;;;;;;;;;;15.36;47.03;100598.56;3146807;28;19928;-66
2023/10/11 02:19:22;;;;;;;;;;;;;;;15.34;47.17;100596.00;3158315;28;20034;-66
2023/10/11 02:20:55;;;;;;;;;;;;;;;15.34;47.04;100603.03;3149005;28;19932;-66
2023/10/11 02:22:30;;;;;;;;;;;;;;;15.36;46.91;100604.66;3157480;28;19943;-66
2023/10/11 02:24:03;;;;;;;;;;;;;;;15.37;46.93;100610.75;3159256;28;19974;-66
2023/10/11 02:25:35;;;;;;;;;;;;;;;15.36;47.08;100606.44;3159088;28;20325;-68
2023/10/11 02:27:17;;;;;;;;;;;;;;;15.34;46.95;100608.28;3155527;28;19927;-66
2023/10/11 02:28:48;;;;;;;;;;;;;;;15.33;47.02;100615.31;3159254;28;20763;-68
2023/10/11 02:30:24;;;;;;;;;;;;;;;15.34;46.97;100618.78;3159431;28;20408;-68
2023/10/11 02:31:55;;;;;;;;;;;;;;;15.34;46.95;100608.28;3152554;28;20294;-67
2023/10/11 02:33:30;;;;;;;;;;;;;;;15.31;47.01;100614.53;3152931;28;19992;-67
2023/10/11 02:35:06;;;;;;;;;;;;;;;15.28;46.80;100614.69;3159157;28;20409;-68
2023/10/11 02:36:37;;;;;;;;;;;;;;;15.24;46.71;100618.41;3153135;28;20250;-68
2023/10/11 02:38:10;;;;;;;;;;;;;;;15.23;46.79;100617.56;3159337;28;20388;-68
2023/10/11 02:39:43;;;;;;;;;;;;;;;15.22;46.66;100615.84;3155634;28;19924;-67
2023/10/11 02:41:14;;;;;;;;;;;;;;;15.22;46.74;100615.84;3152741;28;19924;-67
2023/10/11 02:42:46;;;;;;;;;;;;;;;15.21;46.75;100614.16;3150249;28;19932;-68
2023/10/11 02:44:22;;;;;;;;;;;;;;;15.19;46.85;100612.53;3157394;28;20027;-68
2023/10/11 02:45:54;;;;;;;;;;;;;;;15.19;46.84;100616.00;3148272;28;19928;-67
2023/10/11 02:47:24;;;;;;;;;;;;;;;15.16;46.75;100618.78;3158726;28;20297;-67
2023/10/11 02:49:05;;;;;;;;;;;;;;;15.15;46.76;100619.72;3157383;28;19980;-68
2023/10/11 02:50:36;;;;;;;;;;;;;;;15.14;46.70;100617.16;3141323;28;19928;-68
2023/10/11 02:52:08;;;;;;;;;;;;;;;15.12;46.59;100619.88;3154210;28;20492;-67
2023/10/11 02:53:43;;;;;;;;;;;;;;;15.12;46.80;100627.75;3153880;28;19928;-68
2023/10/11 02:55:20;;;;;;;;;;;;;;;15.10;46.69;100628.75;3145529;28;20475;-67
2023/10/11 02:56:52;;;;;;;;;;;;;;;15.08;46.65;100633.22;3152671;28;19928;-67
2023/10/11 02:58:25;;;;;;;;;;;;;;;15.07;46.93;100631.53;3153732;28;19928;-67
2023/10/11 02:59:56;;;;;;;;;;;;;;;15.04;46.73;100624.66;3153561;28;19970;-66
2023/10/11 03:01:31;;;;;;;;;;;;;;;15.04;46.96;100626.44;3153582;28;19928;-66
2023/10/11 03:03:07;;;;;;;;;;;;;;;15.04;46.84;100631.69;3153497;28;20400;-66
2023/10/11 03:04:39;;;;;;;;;;;;;;;15.06;46.87;100629.84;3153612;28;20340;-66
2023/10/11 03:06:10;;;;;;;;;;;;;;;15.04;46.58;100623.81;3149091;28;19932;-66
2023/10/11 03:07:42;;;;;;;;;;;;;;;15.01;46.74;100624.81;3153571;28;19935;-66
2023/10/11 03:09:18;;;;;;;;;;;;;;;14.99;46.60;100626.66;3153595;28;20145;-66
2023/10/11 03:10:54;;;;;;;;;;;;;;;14.97;46.80;100620.66;3144176;28;19928;-66
2023/10/11 03:12:31;;;;;;;;;;;;;;;14.98;46.72;100630.22;3144194;28;19940;-66
2023/10/11 03:14:04;;;;;;;;;;;;;;;14.95;46.84;100633.84;3153689;28;19935;-66
2023/10/11 03:15:38;;;;;;;;;;;;;;;14.93;46.67;100626.97;3153218;28;19966;-65
2023/10/11 03:17:13;;;;;;;;;;;;;;;14.95;46.86;100638.25;3148517;28;19928;-65
2023/10/11 03:18:46;;;;;;;;;;;;;;;14.96;46.54;100642.56;3145864;28;20345;-65
2023/10/11 03:20:30;;;;;;;;;;;;;;;14.95;46.63;100641.72;3149421;28;20725;-65
2023/10/11 03:22:02;;;;;;;;;;;;;;;14.94;46.86;100639.19;3153575;28;20401;-65
2023/10/11 03:23:36;;;;;;;;;;;;;;;14.91;46.66;100648.06;3148531;28;19935;-64
2023/10/11 03:25:18;;;;;;;;;;;;;;;14.90;46.47;100640.25;3140860;28;20023;-64
2023/10/11 03:26:51;;;;;;;;;;;;;;;14.89;46.62;100647.25;3145605;28;19935;-64
2023/10/11 03:28:26;;;;;;;;;;;;;;;14.87;46.59;100643.84;3153573;28;20488;-64
2023/10/11 03:29:59;;;;;;;;;;;;;;;14.85;46.66;100644.84;3153516;28;19939;-64
2023/10/11 03:31:31;;;;;;;;;;;;;;;14.85;46.87;100644.84;3153365;28;20401;-64
2023/10/11 03:33:02;;;;;;;;;;;;;;;14.83;46.63;100644.09;3153578;28;19935;-65
2023/10/11 03:34:34;;;;;;;;;;;;;;;14.81;46.71;100649.41;3149251;28;20025;-64
2023/10/11 03:36:05;;;;;;;;;;;;;;;14.81;46.51;100648.56;3153137;28;19935;-65
2023/10/11 03:37:37;;;;;;;;;;;;;;;14.80;46.65;100645.09;3153446;28;19940;-64
2023/10/11 03:39:10;;;;;;;;;;;;;;;14.79;46.81;100648.66;3153478;28;19927;-64
2023/10/11 03:40:54;;;;;;;;;;;;;;;14.78;46.79;100647.78;3142729;28;20334;-64
2023/10/11 03:44:24;;;;;;;;;;;;;;;14.76;46.65;100644.41;3176486;27;19915;-65
2023/10/11 03:45:59;;;;;;;;;;;;;;;14.76;46.62;100643.56;3175275;28;19928;-65
2023/10/11 03:47:31;;;;;;;;;;;;;;;14.73;46.62;100649.81;3176465;28;20039;-65
2023/10/11 03:49:14;;;;;;;;;;;;;;;14.71;46.63;100658.66;3171563;28;19963;-65
2023/10/11 03:50:51;;;;;;;;;;;;;;;14.70;46.50;100657.81;3176230;27;19939;-65
2023/10/11 03:52:24;;;;;;;;;;;;;;;14.70;46.79;100659.56;3176403;28;19927;-65
2023/10/11 03:53:54;;;;;;;;;;;;;;;14.68;46.56;100658.81;3173925;28;20035;-66
2023/10/11 03:55:31;;;;;;;;;;;;;;;14.69;46.74;100660.50;3167342;28;20487;-67
2023/10/11 03:57:04;;;;;;;;;;;;;;;14.67;46.62;100652.72;3176049;28;20492;-66
2023/10/11 03:58:37;;;;;;;;;;;;;;;14.68;46.62;100657.03;3176281;28;20399;-67
2023/10/11 04:00:24;;;;;;;;;;;;;;;14.67;46.63;100655.34;3175954;28;19927;-67
2023/10/11 04:01:58;;;;;;;;;;;;;;;14.66;46.60;100656.25;3154182;28;19978;-68
2023/10/11 04:03:30;;;;;;;;;;;;;;;14.69;46.55;100657.88;3169878;28;20521;-67
2023/10/11 04:05:03;;;;;;;;;;;;;;;14.70;46.28;100654.31;3166164;28;19927;-69
2023/10/11 04:06:35;;;;;;;;;;;;;;;14.68;46.56;100653.56;3170194;27;19928;-66
2023/10/11 04:08:10;;;;;;;;;;;;;;;14.65;46.56;100657.19;3175993;28;19943;-67
2023/10/11 04:09:44;;;;;;;;;;;;;;;14.66;46.60;100663.28;3174562;28;19939;-69
2023/10/11 04:11:18;;;;;;;;;;;;;;;14.65;46.56;100658.97;3165399;28;19932;-62
2023/10/11 04:12:50;;;;;;;;;;;;;;;14.64;46.35;100660.75;3160034;28;19955;-65
2023/10/11 04:14:24;;;;;;;;;;;;;;;14.64;46.39;100659.88;3163489;28;20031;-71
2023/10/11 04:15:59;;;;;;;;;;;;;;;14.63;46.71;100656.41;3174709;28;19927;-67
2023/10/11 04:17:31;;;;;;;;;;;;;;;14.64;46.67;100655.50;3170280;27;19928;-71
2023/10/11 04:19:03;;;;;;;;;;;;;;;14.68;46.56;100667.53;3170211;28;19939;-68
2023/10/11 04:20:34;;;;;;;;;;;;;;;14.70;46.58;100664.81;3162999;28;20420;-67
2023/10/11 04:22:12;;;;;;;;;;;;;;;14.72;46.55;100665.59;3164140;28;19939;-67
2023/10/11 04:23:45;;;;;;;;;;;;;;;14.75;46.35;100668.06;3175504;27;19975;-65
2023/10/11 04:25:18;;;;;;;;;;;;;;;14.77;46.32;100661.81;3176080;28;19961;-67
2023/10/11 04:26:53;;;;;;;;;;;;;;;14.80;46.20;100660.84;3154072;27;19950;-69
2023/10/11 04:28:25;;;;;;;;;;;;;;;14.87;46.07;100661.38;3150944;28;19970;-66
2023/10/11 04:29:55;;;;;;;;;;;;;;;14.92;46.12;100669.88;3175543;28;20173;-65
2023/10/11 04:31:28;;;;;;;;;;;;;;;14.95;46.19;100667.09;3173017;27;19927;-70
2023/10/11 04:33:01;;;;;;;;;;;;;;;14.98;46.10;100659.06;3163281;28;20454;-68
2023/10/11 04:34:32;;;;;;;;;;;;;;;15.01;46.15;100658.91;3172788;28;20388;-70
2023/10/11 04:36:03;;;;;;;;;;;;;;;15.02;46.13;100665.84;3175639;28;20064;-67
2023/10/11 04:37:43;;;;;;;;;;;;;;;15.00;45.92;100673.81;3175515;28;19942;-64
2023/10/11 04:39:18;;;;;;;;;;;;;;;15.00;46.15;100668.56;3175182;27;20491;-66
2023/10/11 04:40:51;;;;;;;;;;;;;;;14.98;45.97;100672.19;3167720;28;19928;-63
2023/10/11 04:42:27;;;;;;;;;;;;;;;14.96;46.01;100672.25;3164278;28;20697;-62
2023/10/11 04:44:06;;;;;;;;;;;;;;;14.95;45.84;100669.72;3168105;28;19984;-64
2023/10/11 04:45:45;;;;;;;;;;;;;;;14.93;46.10;100675.03;3162267;28;20610;-63
2023/10/11 04:47:17;;;;;;;;;;;;;;;14.97;45.94;100681.84;3165049;28;19928;-67
2023/10/11 04:48:49;;;;;;;;;;;;;;;14.99;45.86;100679.13;3164738;27;19928;-62
2023/10/11 04:50:23;;;;;;;;;;;;;;;14.98;45.96;100674.81;3165675;28;19993;-62
2023/10/11 04:51:56;;;;;;;;;;;;;;;14.92;45.96;100680.38;3173623;28;19927;-62
2023/10/11 04:53:32;;;;;;;;;;;;;;;14.91;46.23;100676.91;3175249;28;20038;-62
2023/10/11 04:55:12;;;;;;;;;;;;;;;14.85;46.12;100678.94;3157090;28;19967;-64
2023/10/11 04:56:52;;;;;;;;;;;;;;;14.85;46.32;100684.19;3157390;28;20010;-66
2023/10/11 05:02:16;;;;;;;;;;;;;;;14.87;46.21;100690.22;3117631;28;19982;-66
2023/10/11 05:03:58;;;;;;;;;;;;;;;14.90;46.09;100690.06;3141680;28;19947;-67
2023/10/11 05:05:30;;;;;;;;;;;;;;;14.92;46.11;100693.47;3156308;28;20001;-68
2023/10/11 05:07:07;;;;;;;;;;;;;;;14.92;46.06;100696.09;3158414;28;19936;-67
2023/10/11 05:08:52;;;;;;;;;;;;;;;14.93;46.18;100696.00;3166434;28;19949;-66
2023/10/11 05:10:42;;;;;;;;;;;;;;;14.93;46.10;100698.63;3162138;28;20038;-66
2023/10/11 05:12:19;;;;;;;;;;;;;;;14.93;45.86;100700.41;3154350;28;20031;-66
2023/10/11 05:13:59;;;;;;;;;;;;;;;14.93;46.03;100697.78;3157126;28;19939;-65
2023/10/11 05:15:42;;;;;;;;;;;;;;;14.95;46.13;100711.69;3164399;28;20011;-66
2023/10/11 05:19:05;;;;;;;;;;;;;;;14.91;45.96;100710.16;3166827;28;19928;-66
2023/10/11 05:20:47;;;;;;;;;;;;;;;14.84;45.93;100713.97;3158629;28;20362;-65
2023/10/11 05:22:29;;;;;;;;;;;;;;;14.77;46.39;100714.28;3164865;28;19963;-67
2023/10/11 05:24:14;;;;;;;;;;;;;;;14.78;46.37;100715.97;3166274;28;20019;-66
2023/10/11 05:25:59;;;;;;;;;;;;;;;14.80;46.15;100713.28;3162444;28;19927;-66
2023/10/11 05:27:37;;;;;;;;;;;;;;;14.84;46.15;100716.59;3141285;28;19955;-65
2023/10/11 05:31:19;;;;;;;;;;;;;;;14.83;46.28;100723.63;3159926;27;20369;-64
2023/10/11 05:32:54;;;;;;;;;;;;;;;14.85;46.33;100718.28;3143046;28;20374;-65
2023/10/11 05:34:46;;;;;;;;;;;;;;;14.85;46.15;100726.16;3166034;28;19943;-65
2023/10/11 05:36:36;;;;;;;;;;;;;;;14.82;46.26;100727.16;3156948;28;20444;-66
2023/10/11 05:51:00;;;;;;;;;;;;;;;14.86;46.10;100746.22;3161766;28;20079;-64
2023/10/11 05:52:36;;;;;;;;;;;;;;;14.87;46.20;100761.03;3165840;28;19954;-64
2023/10/11 05:55:57;;;;;;;;;;;;;;;14.94;45.95;100754.59;3148071;28;20000;-63
2023/10/11 05:57:28;;;;;;;;;;;;;;;14.98;46.16;100764.84;3165849;28;19995;-63
2023/10/11 05:59:04;;;;;;;;;;;;;;;14.99;45.93;100756.03;3160996;28;19985;-63
2023/10/11 06:00:38;;;;;;;;;;;;;;;15.01;46.05;100763.84;3159726;28;20359;-65
2023/10/11 06:02:13;;;;;;;;;;;;;;;15.05;46.09;100764.53;3165934;28;20029;-63
2023/10/11 06:03:48;;;;;;;;;;;;;;;15.12;45.88;100763.34;3160403;28;19928;-64
2023/10/11 06:05:22;;;;;;;;;;;;;;;15.15;45.71;100765.81;3164821;28;19934;-64
2023/10/11 06:06:58;;;;;;;;;;;;;;;15.19;45.78;100764.72;3152889;28;19932;-64
2023/10/11 06:08:31;;;;;;;;;;;;;;;15.22;45.86;100768.03;3155641;28;19981;-65
2023/10/11 06:10:06;;;;;;;;;;;;;;;15.27;45.62;100766.97;3160484;28;20400;-64
2023/10/11 06:11:38;;;;;;;;;;;;;;;15.24;45.64;100763.56;3146481;28;19980;-64
2023/10/11 06:13:13;;;;;;;;;;;;;;;15.32;45.44;100775.47;3150650;28;19928;-64
2023/10/11 06:14:46;;;;;;;;;;;;;;;15.35;45.47;100783.19;3143813;28;19939;-64
2023/10/11 06:16:19;;;;;;;;;;;;;;;15.37;45.26;100786.59;3165475;28;19932;-63
2023/10/11 06:17:54;;;;;;;;;;;;;;;15.38;45.22;100777.78;3167670;28;20026;-64
2023/10/11 06:19:27;;;;;;;;;;;;;;;15.40;45.11;100783.81;3169358;28;20022;-63
2023/10/11 06:21:05;;;;;;;;;;;;;;;15.41;45.06;100775.88;3164270;28;20444;-63
2023/10/11 06:22:38;;;;;;;;;;;;;;;15.42;44.96;100780.19;3171089;28;20073;-63
2023/10/11 06:24:10;;;;;;;;;;;;;;;15.47;45.24;100778.19;3169450;28;19967;-64
2023/10/11 06:25:50;;;;;;;;;;;;;;;15.52;45.06;100782.34;3167640;28;19932;-63
2023/10/11 06:29:22;;;;;;;;;;;;;;;15.56;44.66;100782.13;3153357;28;19956;-64
2023/10/11 06:30:54;;;;;;;;;;;;;;;15.63;44.76;100778.25;3170256;28;20253;-65
2023/10/11 06:32:25;;;;;;;;;;;;;;;15.69;44.80;100783.22;3170689;28;19924;-65
2023/10/11 06:33:59;;;;;;;;;;;;;;;15.72;44.68;100774.34;3170758;28;20012;-63
2023/10/11 06:35:36;;;;;;;;;;;;;;;15.75;44.48;100775.97;3170346;28;19931;-64
2023/10/11 06:37:08;;;;;;;;;;;;;;;15.77;44.58;100772.34;3155481;28;19930;-64
2023/10/11 06:38:41;;;;;;;;;;;;;;;15.84;44.25;100775.50;3170525;28;19927;-65
2023/10/11 06:40:14;;;;;;;;;;;;;;;15.88;44.36;100777.91;3158757;28;19924;-64
2023/10/11 06:41:50;;;;;;;;;;;;;;;15.92;44.31;100781.22;3152566;28;20007;-64
2023/10/11 06:43:21;;;;;;;;;;;;;;;15.98;44.33;100774.78;3158492;28;20024;-66
2023/10/11 06:44:54;;;;;;;;;;;;;;;16.05;44.33;100781.41;3166596;28;19928;-65
2023/10/11 06:46:27;;;;;;;;;;;;;;;16.13;44.28;100772.19;3161811;28;20142;-64
2023/10/11 06:48:06;;;;;;;;;;;;;;;16.21;44.36;100779.69;3158939;28;19928;-64
2023/10/11 06:49:44;;;;;;;;;;;;;;;16.37;44.25;100779.72;3168342;28;19946;-64
2023/10/11 06:51:15;;;;;;;;;;;;;;;16.60;43.92;100776.69;3166062;28;20014;-63
2023/10/11 06:53:07;;;;;;;;;;;;;;;16.72;43.91;100774.31;3163446;28;20409;-64
2023/10/11 06:54:45;;;;;;;;;;;;;;;16.79;43.87;100778.34;3148315;28;19946;-65
2023/10/11 06:56:17;;;;;;;;;;;;;;;16.81;43.54;100781.75;3169835;28;19924;-65
2023/10/11 06:57:50;;;;;;;;;;;;;;;16.80;43.37;100786.16;3170973;28;19928;-65
2023/10/11 06:59:41;;;;;;;;;;;;;;;16.79;43.62;100794.13;3168613;28;19931;-66
2023/10/11 07:01:21;;;;;;;;;;;;;;;16.76;43.45;100789.03;3170889;28;19924;-65
2023/10/11 07:03:06;;;;;;;;;;;;;;;16.70;43.27;100786.69;3147000;28;19928;-66
2023/10/11 07:04:50;;;;;;;;;;;;;;;16.65;43.35;100792.19;3146450;28;19936;-64
2023/10/11 07:06:49;;;;;;;;;;;;;;;;;;;;;
2023/10/11 07:08:48;;;;;;;;;;;;;;;16.53;43.38;100790.25;3167242;28;19934;-65
2023/10/11 07:10:33;;;;;;;;;;;;;;;16.53;43.46;100785.84;3170505;28;19935;-64
2023/10/11 07:14:14;;;;;;;;;;;;;;;16.54;43.26;100787.53;3119241;28;20091;-64
2023/10/11 07:15:47;;;;;;;;;;;;;;;16.52;43.37;100784.13;3120637;28;19925;-64
2023/10/11 07:17:20;;;;;;;;;;;;;;;16.52;43.53;100786.78;3158208;28;19958;-63
2023/10/11 07:18:54;;;;;;;;;;;;;;;16.54;43.37;100784.06;3169732;28;19924;-63
2023/10/11 07:20:47;;;;;;;;;;;;;;;16.54;43.33;100782.28;3170319;28;19928;-63
2023/10/11 07:22:22;;;;;;;;;;;;;;;16.55;43.35;100786.59;3160117;28;20401;-64
2023/10/11 07:23:56;;;;;;;;;;;;;;;16.59;43.57;100784.66;3170171;28;19963;-64
2023/10/11 07:25:37;;;;;;;;;;;;;;;16.61;43.48;100783.63;3170665;28;19928;-65
2023/10/11 07:27:08;;;;;;;;;;;;;;;16.57;43.31;100790.00;3148712;28;19928;-64
2023/10/11 07:28:41;;;;;;;;;;;;;;;16.52;43.39;100788.56;3169607;28;20515;-63
2023/10/11 07:30:16;;;;;;;;;;;;;;;16.52;43.62;100791.19;3165073;28;19923;-63
2023/10/11 07:31:51;;;;;;;;;;;;;;;16.47;43.52;100788.78;3164143;28;19928;-64
2023/10/11 07:33:21;;;;;;;;;;;;;;;16.49;43.63;100788.72;3165205;28;20398;-63
2023/10/11 07:34:54;;;;;;;;;;;;;;;16.50;43.84;100779.91;3169826;28;19931;-63
2023/10/11 07:36:36;;;;;;;;;;;;;;;16.60;43.52;100794.25;3168354;28;19968;-63
2023/10/11 07:40:09;;;;;;;;;;;;;;;16.70;43.60;100795.44;3163286;28;20389;-64
2023/10/11 07:41:42;;;;;;;;;;;;;;;16.72;43.58;100792.75;3161449;28;19931;-67
2023/10/11 07:43:16;;;;;;;;;;;;;;;16.73;43.47;100800.53;3154787;28;20014;-66
2023/10/11 07:44:50;;;;;;;;;;;;;;;16.77;43.36;100803.88;3159891;28;20478;-68
2023/10/11 07:46:28;;;;;;;;;;;;;;;16.82;43.41;100802.69;3163807;28;20310;-69
2023/10/11 07:54:19;;;;;;;;;;;;;;;;;;;;;
2023/10/11 07:59:52;;;;;;;;;;;;;;;16.78;43.59;100802.94;3114000;28;20368;-67
2023/10/11 08:01:30;;;;;;;;;;;;;;;16.87;43.46;100807.69;3154069;28;20292;-66
2023/10/11 08:03:34;;;;;;;;;;;;;;;17.02;43.35;100806.84;3163663;28;19932;-67
2023/10/11 08:05:25;;;;;;;;;;;;;;;17.23;43.20;100806.56;3147634;28;19929;-67
2023/10/11 08:07:19;;;;;;;;;;;;;;;17.29;42.87;100803.59;3166524;28;19924;-67
2023/10/11 08:08:50;;;;;;;;;;;;;;;17.20;43.12;100809.38;3163163;28;20005;-66
2023/10/11 08:10:33;;;;;;;;;;;;;;;17.19;43.18;100818.22;3166595;28;19939;-64
2023/10/11 08:12:07;;;;;;;;;;;;;;;17.17;43.05;100813.03;3156287;28;19931;-64
2023/10/11 08:13:42;;;;;;;;;;;;;;;17.15;43.01;100814.03;3161056;28;19928;-64
2023/10/11 08:15:19;;;;;;;;;;;;;;;17.11;43.27;100813.38;3169740;28;19928;-64
2023/10/11 08:16:50;;;;;;;;;;;;;;;17.21;43.10;100811.06;3170030;28;19923;-64
2023/10/11 08:18:22;;;;;;;;;;;;;;;17.35;43.06;100816.41;3169789;28;19935;-64
2023/10/11 08:19:54;;;;;;;;;;;;;;;17.58;43.14;100820.34;3169710;28;19967;-64
2023/10/11 08:21:25;;;;;;;;;;;;;;;17.94;42.58;100820.00;3168668;28;19924;-64
2023/10/11 08:22:57;;;;;;;;;;;;;;;18.17;42.17;100818.63;3160292;28;19924;-64
2023/10/11 08:24:29;;;;;;;;;;;;;;;18.37;42.03;100812.13;3170131;28;19924;-64
2023/10/11 08:26:05;;;;;;;;;;;;;;;18.52;41.60;100809.50;3161812;28;20007;-64
2023/10/11 08:27:37;;;;;;;;;;;;;;;18.70;41.35;100807.50;3149376;28;20003;-64
2023/10/11 08:29:16;;;;;;;;;;;;;;;19.13;41.07;100810.03;3168637;28;20332;-65
2023/10/11 08:30:48;;;;;;;;;;;;;;;19.63;40.50;100806.69;3169876;28;19931;-64
2023/10/11 08:32:18;;;;;;;;;;;;;;;20.17;40.07;100809.22;3172519;28;19927;-64
2023/10/11 08:33:51;;;;;;;;;;;;;;;20.77;39.29;100806.84;3172450;28;19927;-64
2023/10/11 08:35:26;;;;;;;;;;;;;;;21.30;38.70;100804.72;3171452;28;19924;-66
2023/10/11 08:37:00;;;;;;;;;;;;;;;21.81;37.93;100801.78;3165920;28;19932;-64
2023/10/11 08:38:32;;;;;;;;;;;;;;;22.32;37.42;100804.03;3162030;28;19956;-65
2023/10/11 08:40:19;;;;;;;;;;;;;;;22.74;36.66;100798.94;3167024;28;20397;-66
2023/10/11 08:41:50;;;;;;;;;;;;;;;23.08;36.51;100804.22;3160933;28;20015;-65
2023/10/11 08:43:21;;;;;;;;;;;;;;;23.28;35.99;100806.09;3159244;28;19932;-65
2023/10/11 08:44:54;;;;;;;;;;;;;;;23.24;35.53;100806.47;3161728;28;20368;-63
2023/10/11 08:46:29;;;;;;;;;;;;;;;23.10;35.26;100807.56;3164628;28;19924;-62
2023/10/11 08:48:00;;;;;;;;;;;;;;;22.82;35.78;100804.47;3162312;28;20651;-63